createdAt,value
2019-02-21T00:01:06.453Z,51.60
2019-02-21T00:04:12.843Z,51.50
2019-02-21T00:07:17.049Z,51.60
2019-02-21T00:10:19.234Z,51.60
2019-02-21T00:13:23.522Z,51.60
2019-02-21T00:16:25.894Z,51.60
2019-02-21T00:19:28.267Z,51.60
2019-02-21T00:22:30.723Z,51.70
2019-02-21T00:25:32.826Z,51.70
2019-02-21T00:28:35.972Z,51.70
2019-02-21T00:31:40.650Z,51.70
2019-02-21T00:34:42.932Z,51.70
2019-02-21T00:37:44.871Z,51.70
2019-02-21T00:40:47.158Z,51.80
2019-02-21T00:43:49.386Z,51.70
2019-02-21T00:46:51.655Z,51.80
2019-02-21T00:49:53.558Z,51.80
2019-02-21T00:52:55.675Z,51.80
2019-02-21T00:55:58.608Z,51.80
2019-02-21T00:59:00.988Z,51.80
2019-02-21T01:02:02.800Z,51.80
2019-02-21T01:05:05.048Z,51.80
2019-02-21T01:08:09.378Z,51.90
2019-02-21T01:11:12.537Z,51.80
2019-02-21T01:14:17.532Z,51.90
2019-02-21T01:17:19.728Z,51.90
2019-02-21T01:20:23.716Z,51.90
2019-02-21T01:23:28.337Z,51.80
2019-02-21T01:26:32.869Z,51.90
2019-02-21T01:29:34.423Z,52.00
2019-02-21T01:32:36.307Z,51.90
2019-02-21T01:35:38.185Z,52.00
2019-02-21T01:38:39.980Z,52.00
2019-02-21T01:41:41.920Z,51.90
2019-02-21T01:44:43.791Z,51.90
2019-02-21T01:47:45.761Z,52.00
2019-02-21T01:50:47.647Z,52.00
2019-02-21T01:53:49.535Z,52.00
2019-02-21T01:56:51.631Z,52.00
2019-02-21T01:59:53.649Z,52.00
2019-02-21T02:02:55.602Z,52.10
2019-02-21T02:05:57.806Z,52.10
2019-02-21T02:08:59.913Z,52.10
2019-02-21T02:12:03.363Z,52.00
2019-02-21T02:15:05.736Z,52.10
2019-02-21T02:18:07.907Z,52.10
2019-02-21T02:21:10.845Z,52.30
2019-02-21T02:24:14.750Z,52.10
2019-02-21T02:27:16.161Z,52.20
2019-02-21T02:30:17.886Z,52.10
2019-02-21T02:33:19.771Z,52.10
2019-02-21T02:36:21.564Z,52.10
2019-02-21T02:39:23.549Z,52.20
2019-02-21T02:42:27.803Z,52.20
2019-02-21T02:45:29.532Z,52.20
2019-02-21T02:48:31.794Z,52.30
2019-02-21T02:51:33.652Z,52.30
2019-02-21T02:54:35.735Z,52.40
2019-02-21T02:57:37.797Z,52.40
2019-02-21T03:00:39.547Z,52.40
2019-02-21T03:03:41.547Z,52.40
2019-02-21T03:06:43.341Z,52.40
2019-02-21T03:09:45.428Z,52.40
2019-02-21T03:12:47.224Z,52.40
2019-02-21T03:15:48.993Z,52.90
2019-02-21T03:18:50.775Z,52.30
2019-02-21T03:21:52.539Z,52.40
2019-02-21T03:24:54.528Z,52.40
2019-02-21T03:27:56.248Z,52.50
2019-02-21T03:30:58.885Z,52.40
2019-02-21T03:34:00.640Z,52.30
2019-02-21T03:37:02.427Z,52.50
2019-02-21T03:40:04.443Z,52.50
2019-02-21T03:43:06.851Z,52.60
2019-02-21T03:46:08.687Z,52.60
2019-02-21T03:49:10.802Z,52.60
2019-02-21T03:52:12.509Z,52.40
2019-02-21T03:55:14.386Z,52.40
2019-02-21T03:58:16.498Z,52.50
2019-02-21T04:01:18.589Z,52.60
2019-02-21T04:04:20.450Z,52.50
2019-02-21T04:07:22.254Z,52.50
2019-02-21T04:10:24.294Z,52.50
2019-02-21T04:13:26.249Z,52.60
2019-02-21T04:16:28.667Z,52.60
2019-02-21T04:19:30.741Z,52.60
2019-02-21T04:22:32.910Z,52.60
2019-02-21T04:25:34.926Z,52.50
2019-02-21T04:28:36.976Z,52.50
2019-02-21T04:31:39.970Z,52.60
2019-02-21T04:34:41.999Z,52.50
2019-02-21T04:37:44.095Z,52.50
2019-02-21T04:40:50.145Z,52.60
2019-02-21T04:43:53.790Z,52.70
2019-02-21T04:47:04.646Z,52.70
2019-02-21T04:50:05.396Z,52.50
2019-02-21T04:53:07.937Z,52.70
2019-02-21T04:56:10.299Z,52.50
2019-02-21T08:28:53.157Z,53.50
2019-02-21T08:31:54.607Z,53.30
2019-02-21T08:34:56.585Z,53.40
2019-02-21T08:37:58.124Z,54.00
2019-02-21T08:40:59.663Z,53.60
2019-02-21T08:44:01.086Z,53.60
2019-02-21T08:47:02.758Z,53.50
2019-02-21T08:50:04.367Z,53.90
2019-02-21T08:53:05.838Z,53.80
2019-02-21T08:56:07.348Z,53.80
2019-02-21T08:59:08.764Z,53.80
2019-02-21T09:02:10.353Z,53.50
2019-02-21T09:05:14.328Z,53.60
2019-02-21T09:08:16.711Z,53.70
2019-02-21T09:11:19.792Z,53.80
2019-02-21T09:14:21.659Z,53.80
2019-02-21T09:17:23.115Z,54.00
2019-02-21T09:20:24.737Z,54.10
2019-02-21T09:23:26.188Z,54.30
2019-02-21T09:26:28.262Z,54.40
2019-02-21T09:29:29.759Z,54.50
2019-02-21T09:32:31.285Z,54.50
2019-02-21T09:35:32.844Z,54.50
2019-02-21T09:38:34.950Z,54.50
2019-02-21T09:41:37.323Z,54.60
2019-02-21T09:44:38.825Z,54.60
2019-02-21T09:47:40.350Z,54.60
2019-02-21T09:50:41.959Z,54.70
2019-02-21T09:53:43.818Z,54.70
2019-02-21T09:56:52.433Z,54.50
2019-02-21T09:59:48.669Z,54.50
2019-02-21T10:02:50.202Z,54.50
2019-02-21T10:05:51.654Z,54.50
2019-02-21T10:08:53.132Z,54.40
2019-02-21T10:11:54.652Z,54.40
2019-02-21T10:14:56.469Z,54.20
2019-02-21T10:17:57.981Z,54.30
2019-02-21T10:20:59.459Z,54.30
2019-02-21T10:24:01.117Z,54.10
2019-02-21T10:27:02.748Z,54.10
2019-02-21T10:30:04.852Z,54.00
2019-02-21T10:33:06.972Z,54.00
2019-02-21T10:36:08.535Z,53.90
2019-02-21T10:39:10.061Z,53.90
2019-02-21T10:42:11.665Z,53.80
2019-02-21T10:45:19.862Z,53.80
2019-02-21T10:48:21.350Z,53.70
2019-02-21T10:51:24.829Z,53.60
2019-02-21T10:54:29.405Z,53.70
2019-02-21T10:57:48.209Z,53.60
2019-02-21T11:00:54.785Z,53.60
2019-02-21T11:03:59.637Z,53.60
2019-02-21T11:07:11.167Z,53.50
2019-02-21T11:10:14.983Z,53.40
2019-02-21T11:13:24.722Z,53.50
2019-02-21T11:16:33.860Z,53.40
2019-02-21T11:20:28.512Z,53.40
2019-02-21T11:23:44.745Z,53.40
2019-02-21T11:26:48.581Z,53.40
2019-02-21T11:29:58.534Z,52.70
2019-02-21T11:33:04.806Z,51.70
2019-02-21T11:36:25.342Z,50.80
2019-02-21T11:39:27.217Z,50.20
2019-02-21T11:42:28.773Z,49.50
2019-02-21T11:45:30.269Z,49.10
2019-02-21T11:48:31.718Z,48.40
2019-02-21T11:51:33.307Z,48.10
2019-02-21T11:54:34.730Z,47.10
2019-02-21T11:57:36.328Z,46.20
2019-02-21T12:00:39.075Z,45.70
2019-02-21T12:03:40.846Z,45.20
2019-02-21T12:06:42.371Z,44.30
2019-02-21T12:09:44.169Z,44.40
2019-02-21T12:12:47.590Z,44.50
2019-02-21T12:15:49.177Z,44.40
2019-02-21T12:18:50.718Z,44.20
2019-02-21T12:21:58.993Z,42.90
2019-02-21T12:24:55.494Z,43.60
2019-02-21T12:27:57.046Z,43.20
2019-02-21T12:30:58.505Z,43.40
2019-02-21T12:34:00.388Z,43.40
2019-02-21T12:37:01.981Z,43.10
2019-02-21T12:40:03.611Z,42.90
2019-02-21T12:43:06.734Z,42.60
2019-02-21T12:46:08.481Z,42.10
2019-02-21T12:49:10.789Z,42.40
2019-02-21T12:52:12.734Z,42.60
2019-02-21T12:55:26.477Z,42.50
2019-02-21T12:58:18.389Z,42.20
2019-02-21T13:01:19.942Z,41.80
2019-02-21T13:04:21.592Z,41.80
2019-02-21T13:07:23.200Z,40.70
2019-02-21T13:10:25.215Z,41.20
2019-02-21T13:13:26.903Z,41.00
2019-02-21T13:16:28.873Z,41.10
2019-02-21T13:20:18.334Z,41.10
2019-02-21T13:23:28.472Z,41.00
2019-02-21T13:26:30.190Z,41.00
2019-02-21T13:29:32.227Z,41.30
2019-02-21T13:32:33.876Z,40.90
2019-02-21T13:35:35.649Z,39.60
2019-02-21T13:38:39.315Z,39.80
2019-02-21T13:41:40.878Z,39.40
2019-02-21T13:44:42.533Z,39.10
2019-02-21T13:47:45.751Z,39.40
2019-02-21T13:50:47.576Z,39.00
2019-02-21T13:53:52.226Z,38.90
2019-02-21T13:56:53.672Z,38.70
2019-02-21T13:59:55.358Z,38.70
2019-02-21T14:02:57.186Z,38.00
2019-02-21T14:06:03.591Z,38.00
2019-02-21T14:09:02.064Z,37.80
2019-02-21T14:12:05.342Z,38.90
2019-02-21T14:15:09.194Z,38.40
2019-02-21T14:18:11.023Z,38.60
2019-02-21T14:21:12.548Z,38.80
2019-02-21T14:24:14.215Z,38.60
2019-02-21T14:27:15.760Z,39.10
2019-02-21T14:30:18.620Z,37.10
2019-02-21T14:33:20.209Z,37.80
2019-02-21T14:36:21.667Z,38.10
2019-02-21T14:39:23.160Z,38.20
2019-02-21T14:42:24.591Z,37.30
2019-02-21T14:45:26.060Z,36.30
2019-02-21T14:48:27.559Z,37.10
2019-02-21T14:51:29.022Z,37.10
2019-02-21T14:54:31.865Z,37.60
2019-02-21T14:57:40.895Z,37.20
2019-02-21T15:00:36.696Z,36.80
2019-02-21T15:03:38.333Z,37.10
2019-02-21T15:06:39.838Z,37.20
2019-02-21T15:09:41.318Z,37.00
2019-02-21T15:12:43.124Z,36.90
2019-02-21T15:15:44.656Z,35.90
2019-02-21T15:18:46.223Z,36.40
2019-02-21T15:21:47.734Z,35.80
2019-02-21T15:24:49.268Z,35.20
2019-02-21T15:27:50.786Z,36.10
2019-02-21T15:30:52.769Z,35.40
2019-02-21T15:33:54.353Z,35.80
2019-02-21T15:36:55.850Z,35.80
2019-02-21T15:39:57.551Z,34.90
2019-02-21T15:42:59.385Z,34.60
2019-02-21T15:46:01.067Z,34.70
2019-02-21T15:49:02.939Z,33.90
2019-02-21T15:52:04.553Z,34.40
2019-02-21T15:55:12.222Z,34.50
2019-02-21T15:58:10.493Z,34.10
2019-02-21T16:01:14.247Z,34.50
2019-02-21T16:04:15.431Z,35.90
2019-02-21T16:07:16.917Z,34.90
2019-02-21T16:10:22.320Z,35.00
2019-02-21T16:15:25.605Z,35.80
2019-02-21T16:18:27.625Z,37.50
2019-02-21T16:21:29.177Z,38.50
2019-02-21T16:24:30.673Z,39.00
2019-02-21T16:27:32.629Z,39.30
2019-02-21T16:30:34.252Z,39.60
2019-02-21T16:33:35.814Z,39.80
2019-02-21T16:36:37.335Z,40.00
2019-02-21T16:39:39.283Z,40.20
2019-02-21T16:42:40.879Z,39.80
2019-02-21T16:45:46.554Z,40.30
2019-02-21T16:51:13.096Z,39.80
2019-02-21T16:54:15.073Z,39.20
2019-02-21T16:57:16.525Z,39.60
2019-02-21T17:00:18.922Z,39.20
2019-02-21T17:03:20.497Z,39.30
2019-02-21T17:06:22.250Z,39.50
2019-02-21T17:09:24.099Z,39.70
2019-02-21T17:12:25.695Z,39.60
2019-02-21T17:15:27.228Z,39.90
2019-02-21T17:18:30.088Z,40.10
2019-02-21T17:21:32.636Z,40.20
2019-02-21T17:24:34.251Z,40.30
2019-02-21T17:27:36.357Z,40.70
2019-02-21T17:30:39.192Z,40.80
2019-02-21T17:33:40.779Z,40.90
2019-02-21T17:36:46.490Z,41.00
2019-02-21T17:39:48.131Z,41.10
2019-02-21T17:42:49.748Z,41.30
2019-02-21T17:45:51.759Z,41.60
2019-02-21T17:48:55.031Z,41.90
2019-02-21T17:51:56.596Z,42.00
2019-02-21T17:54:58.184Z,42.20
2019-02-21T17:57:59.651Z,42.50
2019-02-21T18:01:01.149Z,42.80
2019-02-21T18:04:03.885Z,43.00
2019-02-21T18:07:06.183Z,43.20
2019-02-21T18:10:11.410Z,43.40
2019-02-21T18:13:13.134Z,43.70
2019-02-21T18:16:14.587Z,43.90
2019-02-21T18:19:16.281Z,44.00
2019-02-21T18:22:17.791Z,44.20
2019-02-21T18:25:33.766Z,44.50
2019-02-21T18:28:36.269Z,44.80
2019-02-21T18:31:54.695Z,44.50
2019-02-21T18:34:56.366Z,45.10
2019-02-21T18:37:57.959Z,45.40
2019-02-21T18:40:59.521Z,45.40
2019-02-21T18:44:01.446Z,45.50
2019-02-21T18:47:03.307Z,45.80
2019-02-21T18:50:05.510Z,45.90
2019-02-21T18:53:07.153Z,46.10
2019-02-21T18:56:09.482Z,46.20
2019-02-21T18:59:11.183Z,46.50
2019-02-21T19:02:13.735Z,46.60
2019-02-21T19:05:15.415Z,47.40
2019-02-21T19:08:16.899Z,46.90
2019-02-21T19:11:19.109Z,47.00
2019-02-21T19:14:20.688Z,46.90
2019-02-21T19:17:22.585Z,47.20
2019-02-21T19:20:24.414Z,47.60
2019-02-21T19:23:26.248Z,47.20
2019-02-21T19:26:27.900Z,47.30
2019-02-21T19:29:29.657Z,47.20
2019-02-21T19:32:32.617Z,47.50
2019-02-21T19:35:34.485Z,47.40
2019-02-21T19:38:36.426Z,47.50
2019-02-21T19:41:38.047Z,47.70
2019-02-21T19:44:39.599Z,47.60
2019-02-21T19:47:41.426Z,47.80
2019-02-21T19:50:43.173Z,47.70
2019-02-21T19:53:44.878Z,47.90
2019-02-21T19:56:49.277Z,48.00
2019-02-21T19:59:51.437Z,48.00
2019-02-21T20:02:53.027Z,48.10
2019-02-21T20:05:54.932Z,48.10
2019-02-21T20:08:56.413Z,48.20
2019-02-21T20:11:57.990Z,48.30
2019-02-21T20:15:00.948Z,48.40
2019-02-21T20:18:02.657Z,48.50
2019-02-21T20:21:04.370Z,48.50
2019-02-21T20:24:07.238Z,48.50
2019-02-21T20:27:09.037Z,48.70
2019-02-21T20:30:13.786Z,48.70
2019-02-21T20:33:15.548Z,48.70
2019-02-21T20:36:17.193Z,48.70
2019-02-21T20:39:19.039Z,48.80
2019-02-21T20:42:20.627Z,49.00
2019-02-21T20:45:24.637Z,48.80
2019-02-21T20:48:25.426Z,49.00
2019-02-21T20:51:27.148Z,49.00
2019-02-21T20:54:28.686Z,49.20
2019-02-21T20:57:30.583Z,49.20
2019-02-21T21:00:32.121Z,49.20
2019-02-21T21:03:33.818Z,49.10
2019-02-21T21:06:35.699Z,49.20
2019-02-21T21:09:37.263Z,49.30
2019-02-21T21:12:38.796Z,49.30
2019-02-21T21:15:40.285Z,49.40
2019-02-21T21:18:41.827Z,50.00
2019-02-21T21:21:43.483Z,49.50
2019-02-21T21:24:45.147Z,49.50
2019-02-21T21:27:46.676Z,49.60
2019-02-21T21:30:48.166Z,49.70
2019-02-21T21:33:49.764Z,49.70
2019-02-21T21:36:58.816Z,49.70
2019-02-21T21:40:02.022Z,49.70
2019-02-21T21:43:05.319Z,49.80
2019-02-21T21:46:06.934Z,49.80
2019-02-21T21:49:08.463Z,49.70
2019-02-21T21:52:09.927Z,49.80
2019-02-21T21:55:12.307Z,49.90
2019-02-21T21:58:13.792Z,49.90
2019-02-21T22:01:16.445Z,49.90
2019-02-21T22:04:17.955Z,50.00
2019-02-21T22:07:19.844Z,50.00
2019-02-21T22:10:21.609Z,50.10
2019-02-21T22:13:23.400Z,50.20
2019-02-21T22:16:24.906Z,50.20
2019-02-21T22:19:26.301Z,50.10
2019-02-21T22:22:27.800Z,50.80
2019-02-21T22:25:29.312Z,50.30
2019-02-21T22:28:30.699Z,50.40
2019-02-21T22:31:32.098Z,50.20
2019-02-21T22:34:33.534Z,50.40
2019-02-21T22:37:35.002Z,50.30
2019-02-21T22:40:36.430Z,50.40
2019-02-21T22:43:38.310Z,50.50
2019-02-21T22:46:39.820Z,50.40
2019-02-21T22:49:41.255Z,50.40
2019-02-21T22:52:42.683Z,50.50
2019-02-21T22:55:44.162Z,50.60
2019-02-21T22:58:45.630Z,50.50
2019-02-21T23:01:48.629Z,50.50
2019-02-21T23:05:35.779Z,50.60
2019-02-21T23:09:26.913Z,50.60
2019-02-21T23:12:22.778Z,50.60
2019-02-21T23:15:24.272Z,50.60
2019-02-21T23:18:25.910Z,50.80
2019-02-21T23:21:27.841Z,50.80
2019-02-21T23:24:29.293Z,50.80
2019-02-21T23:27:30.967Z,50.70
2019-02-21T23:30:32.455Z,50.80
2019-02-21T23:33:35.958Z,50.90
2019-02-21T23:36:37.362Z,50.80
2019-02-21T23:39:39.132Z,50.90
2019-02-21T23:42:40.550Z,51.00
2019-02-21T23:45:42.025Z,51.00
2019-02-21T23:48:43.469Z,51.00
2019-02-21T23:51:44.933Z,51.10
2019-02-21T23:54:46.507Z,51.10
2019-02-21T23:57:47.898Z,51.10
